Time;durP1;ratioP1;P1;durP2;ratioP2;P2;SDS_P1;SDS_P2;PMS_P1;PMS_P2;Temp;Humidity;BMP_temperature;BMP_pressure;BME280_temperature;BME280_humidity;BME280_pressure;Samples;Min_cycle;Max_cycle;Signal;HPM_P1;HPM_P2
2023/10/27 00:00:02;;;;;;;4.90;3.80;;;16.90;68.80;;;;;;348375;28;1035;-57
2023/10/27 00:00:13;;;;;;;5.10;3.90;;;16.90;68.80;;;;;;348454;28;845;-57
2023/10/27 00:00:24;;;;;;;5.55;4.05;;;16.90;68.80;;;;;;348258;28;1329;-57
2023/10/27 00:00:34;;;;;;;5.40;4.10;;;16.90;68.70;;;;;;348364;28;1170;-58
2023/10/27 00:00:45;;;;;;;5.80;4.20;;;16.90;68.70;;;;;;348414;28;758;-57
2023/10/27 00:00:57;;;;;;;5.67;4.20;;;16.90;68.70;;;;;;348298;28;1111;-57
2023/10/27 00:01:08;;;;;;;6.13;4.00;;;16.90;68.70;;;;;;348432;28;992;-57
2023/10/27 00:01:19;;;;;;;6.43;3.73;;;16.90;68.80;;;;;;348444;28;701;-58
2023/10/27 00:01:29;;;;;;;5.30;3.70;;;16.90;68.80;;;;;;348320;28;976;-57
2023/10/27 00:01:40;;;;;;;5.50;3.92;;;16.90;68.80;;;;;;348416;28;1095;-57
2023/10/27 00:01:51;;;;;;;5.55;4.10;;;16.90;68.80;;;;;;348401;28;1103;-57
2023/10/27 00:02:01;;;;;;;5.30;4.10;;;16.90;68.80;;;;;;348350;28;946;-57
2023/10/27 00:02:12;;;;;;;5.10;3.90;;;16.90;68.80;;;;;;348399;28;1102;-56
2023/10/27 00:02:23;;;;;;;4.85;3.90;;;16.90;68.70;;;;;;348429;28;1099;-58
2023/10/27 00:02:38;;;;;;;5.10;3.90;;;16.90;68.70;;;;;;348370;28;1295;-57
2023/10/27 00:02:49;;;;;;;4.57;3.80;;;16.90;68.70;;;;;;348304;28;1091;-58
2023/10/27 00:02:59;;;;;;;5.00;3.97;;;16.90;68.70;;;;;;348441;28;1046;-57
2023/10/27 00:03:10;;;;;;;5.77;4.23;;;16.90;68.70;;;;;;348440;28;999;-56
2023/10/27 00:03:21;;;;;;;5.35;4.30;;;16.90;68.70;;;;;;348324;28;1422;-57
2023/10/27 00:03:32;;;;;;;5.78;4.18;;;16.90;68.70;;;;;;348314;28;1388;-58
2023/10/27 00:03:43;;;;;;;5.22;4.10;;;16.90;68.70;;;;;;348312;28;1075;-57
2023/10/27 00:03:54;;;;;;;5.88;4.38;;;16.90;68.70;;;;;;348426;28;718;-58
2023/10/27 00:04:05;;;;;;;6.93;4.47;;;16.90;68.80;;;;;;348401;28;1114;-58
2023/10/27 00:04:16;;;;;;;6.72;4.35;;;16.90;68.80;;;;;;348415;28;848;-58
2023/10/27 00:04:27;;;;;;;5.53;4.00;;;16.90;68.80;;;;;;348409;28;920;-57
2023/10/27 00:04:38;;;;;;;5.57;4.17;;;16.90;68.80;;;;;;348327;28;1048;-58
2023/10/27 00:04:48;;;;;;;5.82;4.15;;;16.90;68.80;;;;;;348362;28;1448;-57
2023/10/27 00:04:59;;;;;;;5.20;4.05;;;16.90;68.80;;;;;;348407;28;1035;-57
2023/10/27 00:05:10;;;;;;;4.80;3.88;;;16.90;68.70;;;;;;348407;28;887;-57
2023/10/27 00:05:21;;;;;;;4.83;3.83;;;16.90;68.50;;;;;;348371;28;1558;-57
2023/10/27 00:05:32;;;;;;;4.85;3.90;;;16.90;68.40;;;;;;348277;28;1074;-58
2023/10/27 00:05:42;;;;;;;5.07;3.90;;;16.90;68.20;;;;;;348419;28;959;-58
2023/10/27 00:05:53;;;;;;;4.78;3.72;;;16.90;68.30;;;;;;348347;28;1107;-58
2023/10/27 00:06:04;;;;;;;5.20;3.55;;;16.90;68.40;;;;;;348434;28;1064;-57
2023/10/27 00:06:15;;;;;;;4.95;3.33;;;16.90;68.40;;;;;;348441;28;1027;-58
2023/10/27 00:06:27;;;;;;;4.80;3.40;;;16.90;68.50;;;;;;348303;28;1028;-57
2023/10/27 00:06:38;;;;;;;4.57;3.60;;;16.90;68.60;;;;;;348378;28;1003;-58
2023/10/27 00:06:48;;;;;;;4.53;3.60;;;16.90;68.60;;;;;;348372;28;1090;-58
2023/10/27 00:06:59;;;;;;;5.35;3.88;;;16.90;68.60;;;;;;348407;28;884;-57
2023/10/27 00:07:10;;;;;;;5.93;3.70;;;16.90;68.50;;;;;;348302;28;1424;-57
2023/10/27 00:07:21;;;;;;;6.43;3.55;;;16.90;68.50;;;;;;348345;28;997;-58
2023/10/27 00:07:31;;;;;;;6.30;3.50;;;16.90;68.50;;;;;;348377;28;956;-58
2023/10/27 00:07:42;;;;;;;5.90;4.00;;;16.90;68.50;;;;;;348191;28;1985;-57
2023/10/27 00:07:53;;;;;;;5.43;4.10;;;16.90;68.50;;;;;;348343;28;1503;-58
2023/10/27 00:08:03;;;;;;;4.63;4.10;;;16.90;68.50;;;;;;348286;28;1024;-58
2023/10/27 00:08:14;;;;;;;4.33;3.93;;;16.90;68.50;;;;;;348397;28;968;-58
2023/10/27 00:08:25;;;;;;;5.20;3.90;;;16.90;68.50;;;;;;348201;28;1434;-58
2023/10/27 00:08:36;;;;;;;5.22;4.03;;;16.90;68.60;;;;;;348350;28;1020;-58
2023/10/27 00:08:46;;;;;;;5.40;4.10;;;16.90;68.60;;;;;;348370;28;1050;-58
2023/10/27 00:08:57;;;;;;;4.85;4.05;;;16.90;68.70;;;;;;348365;28;1154;-57
2023/10/27 00:09:08;;;;;;;5.23;4.10;;;16.90;68.80;;;;;;348324;28;1047;-56
2023/10/27 00:09:18;;;;;;;5.68;4.18;;;16.90;68.80;;;;;;348417;28;879;-57
2023/10/27 00:09:31;;;;;;;6.13;4.25;;;16.90;68.80;;;;;;348277;28;902;-57
2023/10/27 00:09:42;;;;;;;6.18;4.03;;;16.90;68.80;;;;;;348377;28;1175;-57
2023/10/27 00:09:52;;;;;;;6.68;4.18;;;16.90;68.80;;;;;;348290;28;1292;-58
2023/10/27 00:10:04;;;;;;;6.07;4.15;;;16.90;68.90;;;;;;348399;28;841;-57
2023/10/27 00:10:14;;;;;;;5.75;4.32;;;16.90;68.80;;;;;;348302;28;1134;-57
2023/10/27 00:10:25;;;;;;;5.00;4.15;;;16.90;68.70;;;;;;348371;28;1007;-57
2023/10/27 00:10:37;;;;;;;4.43;4.03;;;16.90;68.60;;;;;;348304;28;1055;-57
2023/10/27 00:10:47;;;;;;;4.53;3.90;;;16.90;68.50;;;;;;348398;28;1043;-57
2023/10/27 00:11:04;;;;;;;4.80;3.75;;;16.90;68.50;;;;;;348306;28;956;-58
2023/10/27 00:11:14;;;;;;;4.88;3.50;;;16.90;68.40;;;;;;348372;28;1050;-57
2023/10/27 00:11:25;;;;;;;4.35;3.53;;;16.90;68.50;;;;;;348313;28;1047;-58
2023/10/27 00:11:36;;;;;;;4.30;3.63;;;16.90;68.60;;;;;;348351;28;1023;-57
2023/10/27 00:11:47;;;;;;;4.10;3.65;;;16.90;68.60;;;;;;348303;28;1158;-57
2023/10/27 00:11:58;;;;;;;4.50;3.70;;;16.90;68.70;;;;;;348377;28;1043;-57
2023/10/27 00:12:08;;;;;;;4.30;3.60;;;16.90;68.70;;;;;;348398;28;722;-58
2023/10/27 00:12:19;;;;;;;4.70;3.70;;;16.90;68.60;;;;;;348324;28;1067;-57
2023/10/27 00:12:30;;;;;;;4.38;3.63;;;16.90;68.60;;;;;;348359;28;898;-57
2023/10/27 00:12:41;;;;;;;4.25;3.60;;;16.90;68.60;;;;;;348380;28;976;-58
2023/10/27 00:12:52;;;;;;;4.20;3.60;;;16.90;68.60;;;;;;348334;28;1042;-57
2023/10/27 00:13:02;;;;;;;4.40;3.80;;;16.90;68.70;;;;;;348387;28;901;-59
2023/10/27 00:13:13;;;;;;;4.40;3.67;;;16.90;68.50;;;;;;348427;28;952;-57
2023/10/27 00:13:24;;;;;;;4.88;3.60;;;16.90;68.40;;;;;;348310;28;1075;-57
2023/10/27 00:13:34;;;;;;;4.82;3.58;;;16.90;68.30;;;;;;348380;28;749;-57
2023/10/27 00:13:45;;;;;;;4.85;3.70;;;16.90;68.20;;;;;;348411;28;996;-57
2023/10/27 00:13:56;;;;;;;4.97;3.50;;;16.80;68.30;;;;;;348323;28;1055;-58
2023/10/27 00:14:07;;;;;;;6.93;3.60;;;16.90;68.30;;;;;;348379;28;991;-56
2023/10/27 00:14:17;;;;;;;6.85;3.55;;;16.90;68.20;;;;;;348354;28;1000;-57
2023/10/27 00:14:28;;;;;;;6.15;3.47;;;16.80;68.20;;;;;;348335;28;1027;-57
2023/10/27 00:14:40;;;;;;;4.33;3.33;;;16.80;68.20;;;;;;348425;28;757;-57
2023/10/27 00:14:51;;;;;;;3.70;3.20;;;16.90;68.40;;;;;;348420;28;1617;-58
2023/10/27 00:15:01;;;;;;;4.28;3.55;;;16.90;68.40;;;;;;348290;28;1586;-58
2023/10/27 00:15:12;;;;;;;5.20;3.85;;;16.80;68.50;;;;;;348375;28;1007;-59
2023/10/27 00:15:23;;;;;;;5.65;3.90;;;16.90;68.60;;;;;;348383;28;1011;-58
2023/10/27 00:15:34;;;;;;;5.33;3.90;;;16.90;68.50;;;;;;348276;28;941;-57
2023/10/27 00:15:45;;;;;;;5.03;3.75;;;16.80;68.40;;;;;;348339;28;1134;-57
2023/10/27 00:15:56;;;;;;;5.65;3.95;;;16.80;68.40;;;;;;348396;28;912;-58
2023/10/27 00:16:09;;;;;;;5.25;3.97;;;16.80;68.30;;;;;;348331;28;915;-58
2023/10/27 00:16:20;;;;;;;5.03;3.78;;;16.80;68.40;;;;;;348482;28;785;-58
2023/10/27 00:16:31;;;;;;;4.47;3.67;;;16.80;68.50;;;;;;348370;28;916;-57
2023/10/27 00:16:42;;;;;;;4.32;3.53;;;16.80;68.50;;;;;;348302;28;1157;-57
2023/10/27 00:16:54;;;;;;;4.15;3.75;;;16.80;68.50;;;;;;348362;28;1027;-57
2023/10/27 00:17:05;;;;;;;4.25;3.80;;;16.80;68.40;;;;;;348349;28;1060;-57
2023/10/27 00:17:15;;;;;;;4.67;3.90;;;16.80;68.50;;;;;;348312;28;930;-57
2023/10/27 00:17:26;;;;;;;6.20;3.90;;;16.80;68.50;;;;;;348397;28;968;-57
2023/10/27 00:17:37;;;;;;;7.32;4.00;;;16.80;68.60;;;;;;348378;28;1023;-57
2023/10/27 00:17:47;;;;;;;6.28;3.90;;;16.80;68.70;;;;;;348342;28;1106;-57
2023/10/27 00:17:58;;;;;;;5.47;3.80;;;16.80;68.70;;;;;;348223;28;1261;-57
2023/10/27 00:18:09;;;;;;;4.60;3.80;;;16.70;68.70;;;;;;348373;28;733;-58
2023/10/27 00:18:20;;;;;;;4.60;3.92;;;16.80;68.70;;;;;;348324;28;1062;-58
2023/10/27 00:18:30;;;;;;;5.00;3.95;;;16.80;68.70;;;;;;348229;28;1099;-58
2023/10/27 00:18:41;;;;;;;4.88;3.70;;;16.80;68.70;;;;;;348276;28;984;-58
2023/10/27 00:18:52;;;;;;;4.97;3.63;;;16.80;68.70;;;;;;348367;28;845;-58
2023/10/27 00:19:03;;;;;;;4.57;3.72;;;16.80;68.80;;;;;;348325;28;1037;-57
2023/10/27 00:19:13;;;;;;;4.65;3.72;;;16.80;68.70;;;;;;348409;28;1035;-57
2023/10/27 00:19:24;;;;;;;4.75;3.80;;;16.70;68.70;;;;;;348278;28;1162;-58
2023/10/27 00:19:35;;;;;;;4.03;3.63;;;16.70;68.70;;;;;;348353;28;991;-56
2023/10/27 00:19:46;;;;;;;4.37;3.70;;;16.80;68.70;;;;;;348268;28;1028;-57
2023/10/27 00:19:58;;;;;;;4.95;3.70;;;16.70;68.70;;;;;;348390;28;829;-56
2023/10/27 00:20:09;;;;;;;5.45;3.90;;;16.80;68.60;;;;;;348270;28;1535;-57
2023/10/27 00:20:20;;;;;;;4.95;3.70;;;16.70;68.60;;;;;;348364;28;920;-57
2023/10/27 00:20:31;;;;;;;4.60;3.70;;;16.70;68.60;;;;;;348298;28;1019;-58
2023/10/27 00:20:42;;;;;;;5.40;3.78;;;16.70;68.70;;;;;;348315;28;1134;-58
2023/10/27 00:20:53;;;;;;;5.30;3.72;;;16.80;68.70;;;;;;348327;28;1046;-59
2023/10/27 00:21:04;;;;;;;4.73;3.50;;;16.70;68.60;;;;;;348338;28;1019;-58
2023/10/27 00:21:14;;;;;;;3.83;3.30;;;16.70;68.60;;;;;;348272;28;1031;-57
2023/10/27 00:21:25;;;;;;;4.35;3.50;;;16.70;68.60;;;;;;348339;28;1913;-58
2023/10/27 00:21:36;;;;;;;4.68;3.50;;;16.70;68.60;;;;;;348307;28;1044;-57
2023/10/27 00:21:46;;;;;;;4.83;3.40;;;16.80;68.50;;;;;;348302;28;1761;-58
2023/10/27 00:21:57;;;;;;;4.55;3.33;;;16.80;68.60;;;;;;348284;28;1024;-58
2023/10/27 00:22:08;;;;;;;4.53;3.50;;;16.80;68.60;;;;;;348335;28;1427;-58
2023/10/27 00:22:18;;;;;;;4.25;3.63;;;16.70;68.60;;;;;;348367;28;1660;-57
2023/10/27 00:22:31;;;;;;;4.10;3.53;;;16.80;68.50;;;;;;348340;28;995;-57
2023/10/27 00:22:41;;;;;;;4.40;3.40;;;16.70;68.50;;;;;;348275;28;1269;-58
2023/10/27 00:22:52;;;;;;;4.73;3.47;;;16.70;68.60;;;;;;348392;28;1082;-57
2023/10/27 00:23:03;;;;;;;4.60;3.78;;;16.70;68.70;;;;;;348425;28;893;-57
2023/10/27 00:23:15;;;;;;;4.50;3.80;;;16.70;68.70;;;;;;348318;28;1103;-58
2023/10/27 00:23:26;;;;;;;4.66;3.60;;;16.70;68.80;;;;;;348266;28;1028;-58
2023/10/27 00:23:37;;;;;;;5.57;3.70;;;16.70;69.00;;;;;;348385;28;885;-58
2023/10/27 00:23:47;;;;;;;5.68;3.70;;;16.70;69.00;;;;;;348427;28;853;-58
2023/10/27 00:23:58;;;;;;;5.45;3.63;;;16.70;69.00;;;;;;348375;28;1028;-57
2023/10/27 00:24:09;;;;;;;4.47;3.40;;;16.70;69.00;;;;;;348304;28;1499;-57
2023/10/27 00:24:20;;;;;;;4.67;3.67;;;16.70;69.10;;;;;;348388;28;1019;-58
2023/10/27 00:24:31;;;;;;;4.90;3.60;;;16.70;69.10;;;;;;348402;28;1004;-58
2023/10/27 00:24:42;;;;;;;5.18;3.47;;;16.70;69.10;;;;;;348439;28;726;-57
2023/10/27 00:24:53;;;;;;;4.63;3.53;;;16.70;69.10;;;;;;348279;28;1816;-57
2023/10/27 00:25:04;;;;;;;4.63;3.70;;;16.70;69.00;;;;;;348388;28;1015;-58
2023/10/27 00:25:15;;;;;;;4.18;3.75;;;16.70;69.00;;;;;;348368;28;900;-58
2023/10/27 00:25:26;;;;;;;4.80;3.70;;;16.70;68.90;;;;;;348345;28;1051;-57
2023/10/27 00:25:36;;;;;;;4.82;3.50;;;16.70;68.90;;;;;;348362;28;859;-57
2023/10/27 00:25:47;;;;;;;4.18;3.20;;;16.70;69.00;;;;;;348415;28;857;-57
2023/10/27 00:25:58;;;;;;;3.85;3.22;;;16.70;69.30;;;;;;348400;28;714;-57
2023/10/27 00:26:08;;;;;;;4.00;3.50;;;16.70;69.30;;;;;;348395;28;988;-57
2023/10/27 00:26:19;;;;;;;4.30;3.67;;;16.70;69.30;;;;;;348304;28;855;-58
2023/10/27 00:26:30;;;;;;;4.70;3.75;;;16.70;69.20;;;;;;348368;28;979;-56
2023/10/27 00:26:40;;;;;;;5.17;3.90;;;16.70;69.20;;;;;;348394;28;971;-57
2023/10/27 00:26:51;;;;;;;5.38;3.90;;;16.70;69.30;;;;;;348388;28;1098;-56
2023/10/27 00:27:02;;;;;;;4.65;3.85;;;16.70;69.20;;;;;;348268;28;927;-57
2023/10/27 00:27:12;;;;;;;5.10;3.63;;;16.70;69.10;;;;;;348337;28;1031;-57
2023/10/27 00:27:23;;;;;;;4.90;3.70;;;16.70;69.10;;;;;;348349;28;1095;-58
2023/10/27 00:27:34;;;;;;;4.70;3.65;;;16.70;69.10;;;;;;348402;28;980;-58
2023/10/27 00:27:45;;;;;;;4.18;3.63;;;16.70;69.10;;;;;;348330;28;1965;-58
2023/10/27 00:27:55;;;;;;;4.28;3.70;;;16.70;69.10;;;;;;348279;28;1031;-58
2023/10/27 00:28:06;;;;;;;4.57;3.55;;;16.70;69.10;;;;;;348391;28;1031;-58
2023/10/27 00:28:17;;;;;;;4.83;3.70;;;16.70;69.20;;;;;;348364;28;1023;-58
2023/10/27 00:28:28;;;;;;;5.32;3.72;;;16.70;69.30;;;;;;348321;28;1483;-57
2023/10/27 00:28:39;;;;;;;4.85;3.75;;;16.70;69.30;;;;;;348272;28;999;-57
2023/10/27 00:28:50;;;;;;;4.25;3.67;;;16.70;69.30;;;;;;348351;28;1075;-57
2023/10/27 00:29:01;;;;;;;3.83;3.43;;;16.70;69.40;;;;;;348322;28;1095;-57
2023/10/27 00:29:11;;;;;;;3.80;3.38;;;16.70;69.40;;;;;;348365;28;918;-58
2023/10/27 00:29:22;;;;;;;3.67;3.22;;;16.70;69.50;;;;;;348327;28;998;-58
2023/10/27 00:29:33;;;;;;;3.50;3.20;;;16.70;69.50;;;;;;348420;28;1857;-57
2023/10/27 00:29:43;;;;;;;4.17;3.40;;;16.70;69.50;;;;;;348339;28;782;-58
2023/10/27 00:29:54;;;;;;;4.35;3.25;;;16.70;69.40;;;;;;348360;28;976;-56
2023/10/27 00:30:09;;;;;;;4.72;3.40;;;16.70;69.50;;;;;;348388;28;1396;-57
2023/10/27 00:30:20;;;;;;;4.80;3.58;;;16.70;69.50;;;;;;348312;28;1042;-58
2023/10/27 00:30:31;;;;;;;5.03;3.53;;;16.70;69.40;;;;;;348329;28;1011;-57
2023/10/27 00:30:42;;;;;;;3.95;3.13;;;16.70;69.40;;;;;;348309;28;797;-57
2023/10/27 00:30:52;;;;;;;3.90;3.10;;;16.70;69.60;;;;;;348386;28;983;-57
2023/10/27 00:31:03;;;;;;;3.70;3.23;;;16.70;69.50;;;;;;348315;28;1878;-57
2023/10/27 00:31:14;;;;;;;3.67;3.22;;;16.70;69.30;;;;;;348392;28;1561;-57
2023/10/27 00:31:25;;;;;;;3.78;3.38;;;16.70;69.20;;;;;;348383;28;1051;-57
2023/10/27 00:31:35;;;;;;;4.93;3.60;;;16.70;69.10;;;;;;348347;28;1063;-58
2023/10/27 00:31:46;;;;;;;5.35;3.78;;;16.70;69.10;;;;;;348385;28;1393;-59
2023/10/27 00:31:57;;;;;;;5.20;3.65;;;16.80;69.10;;;;;;348306;28;928;-58
2023/10/27 00:32:07;;;;;;;3.90;3.50;;;16.70;69.10;;;;;;348398;28;984;-58
2023/10/27 00:32:18;;;;;;;4.80;3.40;;;16.80;69.10;;;;;;348265;28;1392;-57
2023/10/27 00:32:29;;;;;;;4.78;3.25;;;16.70;69.20;;;;;;348383;28;1063;-58
2023/10/27 00:32:40;;;;;;;5.18;3.47;;;16.70;69.30;;;;;;348368;28;1052;-56
2023/10/27 00:32:50;;;;;;;4.15;3.50;;;16.70;69.30;;;;;;348268;28;938;-58
2023/10/27 00:33:01;;;;;;;4.25;3.53;;;16.80;69.20;;;;;;348411;28;842;-58
2023/10/27 00:33:12;;;;;;;4.30;3.47;;;16.70;69.20;;;;;;348359;28;1837;-57
2023/10/27 00:33:23;;;;;;;4.15;3.38;;;16.70;69.30;;;;;;348433;28;929;-57
2023/10/27 00:33:34;;;;;;;3.75;3.35;;;16.70;69.40;;;;;;348383;28;1011;-57
2023/10/27 00:33:45;;;;;;;3.80;3.40;;;16.70;69.40;;;;;;348255;28;987;-56
2023/10/27 00:33:55;;;;;;;3.75;3.33;;;16.70;69.30;;;;;;348312;28;1016;-56
2023/10/27 00:34:06;;;;;;;4.03;3.30;;;16.80;69.10;;;;;;348372;28;1024;-57
2023/10/27 00:34:17;;;;;;;4.70;3.37;;;16.70;69.00;;;;;;348378;28;937;-57
2023/10/27 00:34:27;;;;;;;5.28;3.75;;;16.70;68.80;;;;;;348333;28;980;-57
2023/10/27 00:34:38;;;;;;;5.22;3.80;;;16.70;68.80;;;;;;348259;28;1354;-58
2023/10/27 00:34:49;;;;;;;4.85;3.70;;;16.70;68.90;;;;;;348364;28;1023;-56
2023/10/27 00:35:00;;;;;;;4.32;3.42;;;16.70;68.90;;;;;;348393;28;796;-57
2023/10/27 00:35:10;;;;;;;4.47;3.27;;;16.70;68.90;;;;;;348377;28;960;-57
2023/10/27 00:35:22;;;;;;;4.22;3.03;;;16.70;69.10;;;;;;348114;28;1345;-57
2023/10/27 00:35:32;;;;;;;4.47;3.15;;;16.70;69.20;;;;;;348277;28;977;-58
2023/10/27 00:35:43;;;;;;;4.55;3.55;;;16.70;69.20;;;;;;348398;28;1090;-58
2023/10/27 00:35:54;;;;;;;4.72;3.63;;;16.70;69.20;;;;;;348374;28;1082;-58
2023/10/27 00:36:05;;;;;;;4.38;3.53;;;16.70;69.20;;;;;;348325;28;1139;-58
2023/10/27 00:36:17;;;;;;;4.00;3.47;;;16.70;69.20;;;;;;348323;28;1119;-57
2023/10/27 00:36:28;;;;;;;3.78;3.33;;;16.70;69.20;;;;;;348209;28;1409;-56
2023/10/27 00:36:38;;;;;;;3.58;3.20;;;16.70;69.20;;;;;;348310;28;1011;-57
2023/10/27 00:36:49;;;;;;;3.60;3.30;;;16.70;69.30;;;;;;348279;28;1310;-58
2023/10/27 00:37:00;;;;;;;3.83;3.42;;;16.70;69.30;;;;;;348360;28;1067;-58
2023/10/27 00:37:10;;;;;;;4.32;3.60;;;16.70;69.30;;;;;;348392;28;608;-57
2023/10/27 00:37:21;;;;;;;5.30;3.80;;;16.70;69.30;;;;;;348222;28;1141;-57
2023/10/27 00:37:33;;;;;;;5.33;3.90;;;16.70;69.20;;;;;;348417;28;691;-57
2023/10/27 00:37:44;;;;;;;4.95;3.80;;;16.70;69.10;;;;;;348354;28;956;-57
2023/10/27 00:37:55;;;;;;;4.53;3.78;;;16.70;69.10;;;;;;348341;28;784;-59
2023/10/27 00:38:05;;;;;;;4.40;3.67;;;16.70;69.10;;;;;;348385;28;845;-56
2023/10/27 00:38:16;;;;;;;4.32;3.67;;;16.70;69.10;;;;;;348262;28;1079;-57
2023/10/27 00:38:27;;;;;;;4.33;3.67;;;16.70;69.00;;;;;;348402;28;671;-57
2023/10/27 00:38:37;;;;;;;4.65;3.47;;;16.70;68.90;;;;;;348316;28;980;-58
2023/10/27 00:38:50;;;;;;;4.80;3.47;;;16.70;68.80;;;;;;348340;28;1155;-58
2023/10/27 00:39:01;;;;;;;4.80;3.47;;;16.70;68.80;;;;;;348330;28;1060;-57
2023/10/27 00:39:11;;;;;;;4.60;3.42;;;16.70;68.70;;;;;;348268;28;942;-56
2023/10/27 00:39:22;;;;;;;3.90;3.40;;;16.70;68.60;;;;;;348366;28;1059;-57
2023/10/27 00:39:33;;;;;;;4.33;3.43;;;16.70;68.70;;;;;;348340;28;1006;-57
2023/10/27 00:39:43;;;;;;;4.75;3.40;;;16.70;68.70;;;;;;348373;28;841;-58
2023/10/27 00:39:54;;;;;;;4.95;3.45;;;16.70;68.80;;;;;;348351;28;1375;-57
2023/10/27 00:40:05;;;;;;;5.43;3.72;;;16.70;68.90;;;;;;348318;28;1079;-57
2023/10/27 00:40:16;;;;;;;5.40;3.70;;;16.70;68.90;;;;;;348336;28;1024;-57
2023/10/27 00:40:27;;;;;;;5.30;3.63;;;16.70;68.90;;;;;;348339;28;991;-57
2023/10/27 00:40:37;;;;;;;4.10;3.53;;;16.70;69.00;;;;;;348294;28;1090;-58
2023/10/27 00:40:49;;;;;;;4.00;3.60;;;16.70;69.10;;;;;;348384;28;710;-57
2023/10/27 00:40:59;;;;;;;3.95;3.55;;;16.70;69.20;;;;;;348308;28;1015;-57
2023/10/27 00:41:10;;;;;;;3.90;3.50;;;16.70;69.30;;;;;;348383;28;1040;-57
2023/10/27 00:41:23;;;;;;;3.83;3.42;;;16.70;69.30;;;;;;348382;28;1047;-57
2023/10/27 00:41:34;;;;;;;4.07;3.67;;;16.70;69.30;;;;;;348374;28;1086;-58
2023/10/27 00:41:45;;;;;;;4.30;3.80;;;16.70;69.30;;;;;;348320;28;1083;-57
2023/10/27 00:41:56;;;;;;;4.50;3.65;;;16.70;69.30;;;;;;348258;28;1010;-58
2023/10/27 00:42:07;;;;;;;4.75;3.30;;;16.70;69.40;;;;;;348308;28;1960;-57
2023/10/27 00:42:18;;;;;;;5.20;3.30;;;16.70;69.40;;;;;;348359;28;1070;-57
2023/10/27 00:42:29;;;;;;;5.10;3.50;;;16.70;69.40;;;;;;348355;28;972;-56
2023/10/27 00:42:41;;;;;;;4.93;3.50;;;16.70;69.40;;;;;;348313;28;837;-57
2023/10/27 00:42:55;;;;;;;4.30;3.78;;;16.70;69.40;;;;;;348275;28;1047;-56
2023/10/27 00:43:06;;;;;;;4.30;3.65;;;16.70;69.30;;;;;;348252;28;1127;-57
2023/10/27 00:43:17;;;;;;;4.20;3.55;;;16.70;69.20;;;;;;348314;28;1556;-57
2023/10/27 00:43:28;;;;;;;3.90;3.22;;;16.70;69.20;;;;;;348267;28;1118;-58
2023/10/27 00:43:39;;;;;;;3.67;3.30;;;16.60;69.20;;;;;;348318;28;1771;-57
2023/10/27 00:43:49;;;;;;;4.03;3.40;;;16.70;69.30;;;;;;348299;28;1173;-57
2023/10/27 00:44:00;;;;;;;4.55;3.65;;;16.60;69.20;;;;;;348307;28;1099;-58
2023/10/27 00:44:11;;;;;;;4.32;3.55;;;16.60;69.20;;;;;;348226;28;1017;-58
2023/10/27 00:44:22;;;;;;;4.10;3.50;;;16.70;69.10;;;;;;348395;28;780;-57
2023/10/27 00:44:33;;;;;;;3.67;3.28;;;16.70;69.20;;;;;;348348;28;912;-57
2023/10/27 00:44:44;;;;;;;3.80;3.30;;;16.70;69.30;;;;;;348325;28;1814;-57
2023/10/27 00:44:55;;;;;;;3.90;3.20;;;16.70;69.30;;;;;;348278;28;1075;-57
2023/10/27 00:45:06;;;;;;;4.20;3.40;;;16.70;69.30;;;;;;348324;28;1859;-57
2023/10/27 00:45:17;;;;;;;3.85;3.40;;;16.70;69.30;;;;;;348284;28;1482;-57
2023/10/27 00:45:28;;;;;;;4.55;3.70;;;16.70;69.30;;;;;;348317;28;1082;-57
2023/10/27 00:45:39;;;;;;;4.40;3.70;;;16.70;69.30;;;;;;348310;28;970;-57
2023/10/27 00:45:51;;;;;;;3.90;3.25;;;16.70;69.20;;;;;;348295;28;1563;-57
2023/10/27 00:46:02;;;;;;;3.75;2.95;;;16.70;69.30;;;;;;348293;28;1157;-58
2023/10/27 00:46:13;;;;;;;4.13;3.22;;;16.70;69.30;;;;;;348327;28;1028;-57
2023/10/27 00:46:23;;;;;;;4.95;3.47;;;16.70;69.10;;;;;;348316;28;911;-57
2023/10/27 00:46:36;;;;;;;6.20;3.30;;;16.70;69.10;;;;;;348334;28;1075;-57
2023/10/27 00:46:46;;;;;;;5.70;3.20;;;16.70;69.10;;;;;;348302;28;1540;-57
2023/10/27 00:46:57;;;;;;;5.00;3.15;;;16.70;69.10;;;;;;348332;28;979;-57
2023/10/27 00:47:09;;;;;;;3.57;3.23;;;16.60;69.10;;;;;;348216;28;1059;-57
2023/10/27 00:47:19;;;;;;;3.58;3.17;;;16.70;69.10;;;;;;348339;28;1039;-58
2023/10/27 00:47:31;;;;;;;5.03;3.20;;;16.70;69.00;;;;;;348291;28;862;-58
2023/10/27 00:47:42;;;;;;;5.18;3.20;;;16.70;69.10;;;;;;348284;28;1964;-57
2023/10/27 00:47:52;;;;;;;4.88;3.35;;;16.70;69.10;;;;;;348251;28;984;-58
2023/10/27 00:48:04;;;;;;;4.40;3.50;;;16.60;69.00;;;;;;348343;28;726;-59
2023/10/27 00:48:16;;;;;;;4.18;3.38;;;16.70;69.10;;;;;;348357;28;984;-57
2023/10/27 00:48:26;;;;;;;3.97;3.17;;;16.70;69.00;;;;;;348325;28;914;-58
2023/10/27 00:48:37;;;;;;;3.38;3.08;;;16.70;69.00;;;;;;348263;28;845;-58
2023/10/27 00:48:48;;;;;;;3.90;3.20;;;16.70;68.90;;;;;;348272;28;1520;-57
2023/10/27 00:48:59;;;;;;;3.77;3.30;;;16.70;68.90;;;;;;348350;28;963;-57
2023/10/27 00:49:11;;;;;;;3.97;3.40;;;16.70;68.90;;;;;;348334;28;864;-58
2023/10/27 00:49:22;;;;;;;4.10;3.40;;;16.70;68.80;;;;;;348268;28;1028;-57
2023/10/27 00:49:33;;;;;;;4.35;3.38;;;16.60;68.80;;;;;;348331;28;1036;-57
2023/10/27 00:49:44;;;;;;;3.72;3.15;;;16.70;68.90;;;;;;348314;28;904;-57
2023/10/27 00:49:56;;;;;;;4.05;3.28;;;16.70;68.90;;;;;;348388;28;887;-56
2023/10/27 00:50:07;;;;;;;3.95;3.20;;;16.70;68.80;;;;;;348304;28;892;-57
2023/10/27 00:50:18;;;;;;;4.38;3.25;;;16.70;68.70;;;;;;348331;28;1928;-56
2023/10/27 00:50:29;;;;;;;4.13;3.10;;;16.70;68.70;;;;;;348328;28;769;-58
2023/10/27 00:50:40;;;;;;;4.20;3.22;;;16.70;68.70;;;;;;348371;28;738;-57
2023/10/27 00:50:51;;;;;;;4.05;3.38;;;16.70;68.80;;;;;;348221;28;1034;-56
2023/10/27 00:51:05;;;;;;;4.05;3.45;;;16.70;68.80;;;;;;348396;28;877;-57
2023/10/27 00:51:16;;;;;;;3.67;3.30;;;16.60;68.80;;;;;;348342;28;1043;-57
2023/10/27 00:51:27;;;;;;;3.78;3.40;;;16.70;68.90;;;;;;348253;28;1090;-57
2023/10/27 00:51:38;;;;;;;3.88;3.47;;;16.70;68.90;;;;;;348303;28;1024;-57
2023/10/27 00:51:50;;;;;;;3.88;3.47;;;16.70;68.90;;;;;;348292;28;1111;-57
2023/10/27 00:52:01;;;;;;;3.70;3.20;;;16.70;68.80;;;;;;348369;28;1145;-57
2023/10/27 00:52:13;;;;;;;3.95;3.20;;;16.70;68.80;;;;;;348280;28;907;-57
2023/10/27 00:52:25;;;;;;;4.65;3.28;;;16.70;68.70;;;;;;348304;28;1223;-57
2023/10/27 00:52:36;;;;;;;4.60;3.10;;;16.70;68.70;;;;;;348311;28;1565;-57
2023/10/27 00:52:49;;;;;;;4.62;3.04;;;16.70;68.70;;;;;;348235;28;1134;-56
2023/10/27 00:52:59;;;;;;;4.45;3.00;;;16.70;68.70;;;;;;348343;28;1075;-56
2023/10/27 00:53:12;;;;;;;4.53;3.00;;;16.70;68.70;;;;;;348385;28;1043;-59
2023/10/27 00:53:24;;;;;;;4.35;2.97;;;16.70;68.70;;;;;;348219;28;1020;-57
2023/10/27 00:53:35;;;;;;;3.78;3.00;;;16.70;68.70;;;;;;348315;28;1358;-59
2023/10/27 00:53:46;;;;;;;4.13;3.15;;;16.60;68.70;;;;;;348317;28;945;-58
2023/10/27 00:53:58;;;;;;;3.88;3.10;;;16.60;68.60;;;;;;348362;28;1138;-55
2023/10/27 00:54:10;;;;;;;3.92;3.10;;;16.70;68.60;;;;;;348214;28;2096;-57
2023/10/27 00:54:21;;;;;;;3.83;3.20;;;16.60;68.60;;;;;;348387;28;1594;-56
2023/10/27 00:54:34;;;;;;;4.70;3.20;;;16.60;68.60;;;;;;348293;28;1056;-57
2023/10/27 00:54:47;;;;;;;4.80;3.22;;;16.60;68.60;;;;;;348190;28;1198;-56
2023/10/27 00:54:58;;;;;;;5.38;3.20;;;16.60;68.60;;;;;;348324;28;996;-56
2023/10/27 00:55:09;;;;;;;4.53;3.33;;;16.60;68.70;;;;;;348365;28;1043;-57
2023/10/27 00:55:20;;;;;;;5.30;3.42;;;16.60;68.70;;;;;;348196;28;1024;-57
2023/10/27 00:55:32;;;;;;;5.72;3.53;;;16.60;68.80;;;;;;348344;28;729;-59
2023/10/27 00:55:43;;;;;;;5.75;3.40;;;16.60;68.80;;;;;;348296;28;1103;-56
2023/10/27 00:55:55;;;;;;;3.92;3.25;;;16.60;68.80;;;;;;348292;28;996;-58
2023/10/27 00:56:05;;;;;;;4.28;3.50;;;16.60;68.80;;;;;;348225;28;1048;-56
2023/10/27 00:56:16;;;;;;;4.10;3.33;;;16.60;68.70;;;;;;348240;28;1481;-56
2023/10/27 00:56:28;;;;;;;3.97;3.20;;;16.60;68.80;;;;;;348233;28;1453;-56
2023/10/27 00:56:39;;;;;;;3.47;3.08;;;16.60;68.80;;;;;;348303;28;1338;-57
2023/10/27 00:56:50;;;;;;;3.58;3.15;;;16.60;68.80;;;;;;348248;28;1077;-58
2023/10/27 00:57:01;;;;;;;3.90;3.20;;;16.60;68.80;;;;;;348333;28;1094;-56
2023/10/27 00:57:13;;;;;;;3.57;3.00;;;16.60;68.70;;;;;;348336;28;1023;-56
2023/10/27 00:57:26;;;;;;;4.00;3.05;;;16.60;68.60;;;;;;348342;28;999;-57
2023/10/27 00:57:37;;;;;;;4.22;3.00;;;16.60;68.50;;;;;;348216;28;1030;-58
2023/10/27 00:57:52;;;;;;;4.95;2.90;;;16.60;68.50;;;;;;348325;28;977;-58
2023/10/27 00:58:03;;;;;;;5.50;2.90;;;16.60;68.60;;;;;;348321;28;853;-57
2023/10/27 00:58:15;;;;;;;4.88;2.88;;;16.60;68.70;;;;;;348225;28;1102;-57
2023/10/27 00:58:26;;;;;;;3.47;2.90;;;16.60;68.70;;;;;;348280;28;1120;-57
2023/10/27 00:58:38;;;;;;;3.78;3.15;;;16.60;68.80;;;;;;348291;28;984;-57
2023/10/27 00:58:49;;;;;;;4.07;3.13;;;16.60;68.80;;;;;;348269;28;1193;-57
2023/10/27 00:59:00;;;;;;;3.90;3.15;;;16.60;68.80;;;;;;348267;28;983;-57
2023/10/27 00:59:12;;;;;;;3.75;3.15;;;16.60;68.80;;;;;;348371;28;976;-57
2023/10/27 00:59:23;;;;;;;3.78;3.30;;;16.60;68.80;;;;;;348284;28;929;-58